Terminal Aerodrome Forecast
Issued by NWS Sioux Falls, SD

Home | Current Version | Previous Version | Text Only | Print | Product List | Glossary On
Versions: 1 2 3 4 5 6 7 8 9 10 11 12 13 14 15 16 17 18 19 20 21 22
000
FTUS43 KFSD 222204 AAA
TAFSUX
TAF AMD
KSUX 222204Z 2222/2318 24012KT 6SM -RA SCT015 OVC040
      TEMPO 2222/2301 3SM SHRA
     FM230300 23005KT P6SM BKN035
     FM230500 29007KT P6SM BKN200
     FM230900 VRB03KT P6SM SKC=

USA.gov is the U.S. government's official web portal to all federal, state and local government web resources and services.